Time;durP1;ratioP1;P1;durP2;ratioP2;P2;SDS_P1;SDS_P2;PMS_P1;PMS_P2;Temp;Humidity;BMP_temperature;BMP_pressure;BME280_temperature;BME280_humidity;BME280_pressure;Samples;Min_cycle;Max_cycle;Signal;HPM_P1;HPM_P2
2022/12/28 00:01:26;;;;;;;4.63;1.77;;;6.00;1.00;;;;;;5038717;28;20499;-66
2022/12/28 00:03:54;;;;;;;6.60;2.10;;;6.10;1.00;;;;;;5055894;28;20215;-65
2022/12/28 00:06:23;;;;;;;6.57;2.20;;;6.10;1.00;;;;;;5039853;28;20248;-64
2022/12/28 00:08:56;;;;;;;10.17;2.20;;;6.10;1.00;;;;;;5057193;28;20187;-65
2022/12/28 00:11:25;;;;;;;4.23;1.77;;;6.10;1.00;;;;;;5039902;28;20195;-64
2022/12/28 00:14:01;;;;;;;4.83;1.67;;;6.10;1.00;;;;;;5058141;28;20675;-65
2022/12/28 00:16:29;;;;;;;4.93;1.93;;;6.10;1.00;;;;;;5056472;28;20278;-64
2022/12/28 00:18:58;;;;;;;6.37;2.83;;;6.10;1.00;;;;;;5040402;28;20203;-68
2022/12/28 00:21:26;;;;;;;7.90;2.33;;;6.10;1.00;;;;;;5057087;28;20220;-64
2022/12/28 00:23:56;;;;;;;7.70;2.40;;;6.10;1.00;;;;;;5037965;28;20321;-68
2022/12/28 00:26:26;;;;;;;4.00;1.60;;;6.20;1.00;;;;;;5023530;28;20206;-64
2022/12/28 00:28:53;;;;;;;6.73;2.17;;;6.20;1.00;;;;;;5039678;28;20200;-64
2022/12/28 00:31:29;;;;;;;4.93;1.70;;;6.10;1.00;;;;;;5057788;28;20191;-65
2022/12/28 00:33:56;;;;;;;6.30;1.93;;;6.20;1.00;;;;;;5037943;28;20199;-65
2022/12/28 00:36:23;;;;;;;8.40;2.30;;;6.20;1.00;;;;;;5020623;28;20214;-64
2022/12/28 00:39:10;;;;;;;4.07;2.07;;;6.20;1.00;;;;;;5038747;28;20205;-64
2022/12/28 00:41:40;;;;;;;4.03;1.80;;;6.20;1.00;;;;;;5059161;28;20297;-63
2022/12/28 00:44:07;;;;;;;6.93;1.90;;;6.20;1.00;;;;;;5044901;28;20219;-64
2022/12/28 00:46:36;;;;;;;5.07;2.13;;;6.20;1.00;;;;;;5041926;28;20290;-64
2022/12/28 00:49:03;;;;;;;5.63;1.83;;;6.20;1.00;;;;;;5060408;28;20578;-65
2022/12/28 00:51:32;;;;;;;8.03;4.50;;;6.20;1.00;;;;;;5059991;28;20237;-66
2022/12/28 00:53:59;;;;;;;12.20;5.73;;;6.30;1.00;;;;;;5058488;28;20207;-64
2022/12/28 00:56:26;;;;;;;14.73;6.67;;;6.20;1.00;;;;;;5025275;28;20203;-64
2022/12/28 00:58:58;;;;;;;9.83;3.43;;;6.40;1.00;;;;;;5043903;28;20203;-64
2022/12/28 01:01:26;;;;;;;8.07;4.20;;;6.40;1.00;;;;;;5027728;28;20218;-64
2022/12/28 01:03:57;;;;;;;7.20;3.53;;;6.40;1.00;;;;;;5057418;28;20769;-64
2022/12/28 01:06:25;;;;;;;9.97;5.80;;;6.40;1.00;;;;;;5042056;28;20221;-65
2022/12/28 01:08:53;;;;;;;9.43;4.20;;;6.40;1.00;;;;;;5043747;28;20246;-65
2022/12/28 01:11:23;;;;;;;8.67;4.30;;;6.40;1.00;;;;;;5043181;28;20190;-65
2022/12/28 01:13:54;;;;;;;4.33;1.90;;;6.50;1.00;;;;;;5043016;28;20215;-64
2022/12/28 01:16:33;;;;;;;7.53;2.20;;;6.50;1.00;;;;;;5025854;28;20507;-65
2022/12/28 01:19:03;;;;;;;4.00;1.97;;;6.50;1.00;;;;;;5042601;28;20204;-65
2022/12/28 01:21:32;;;;;;;5.30;1.83;;;6.50;1.00;;;;;;5025582;28;20476;-64
2022/12/28 01:24:01;;;;;;;3.60;1.77;;;6.50;1.00;;;;;;5043605;28;20806;-65
2022/12/28 01:26:30;;;;;;;4.23;1.53;;;6.50;1.00;;;;;;5042967;28;20200;-65
2022/12/28 01:28:58;;;;;;;4.77;2.00;;;6.50;1.00;;;;;;5041821;28;20570;-64
2022/12/28 01:31:25;;;;;;;3.07;1.90;;;6.60;1.00;;;;;;5041430;28;20210;-65
2022/12/28 01:33:52;;;;;;;5.10;2.27;;;6.60;1.00;;;;;;5031850;28;20207;-64
2022/12/28 01:36:25;;;;;;;3.47;1.53;;;6.60;1.00;;;;;;5040627;28;20674;-65
2022/12/28 01:38:58;;;;;;;5.50;2.00;;;6.60;1.00;;;;;;5033587;28;20203;-65
2022/12/28 01:41:27;;;;;;;7.03;2.50;;;6.60;1.00;;;;;;5040592;28;20563;-64
2022/12/28 01:43:54;;;;;;;4.63;1.90;;;6.60;1.00;;;;;;5042210;28;20288;-64
2022/12/28 01:46:29;;;;;;;6.37;1.80;;;6.60;1.00;;;;;;5059361;28;20202;-66
2022/12/28 01:49:03;;;;;;;7.73;1.90;;;6.50;1.00;;;;;;5041911;28;20194;-66
2022/12/28 01:51:43;;;;;;;6.10;1.90;;;6.60;1.00;;;;;;5058020;28;20186;-66
2022/12/28 01:54:10;;;;;;;6.80;2.07;;;6.60;1.00;;;;;;5038340;28;20312;-67
2022/12/28 01:56:41;;;;;;;5.10;2.20;;;6.50;1.00;;;;;;5023221;28;20272;-64
2022/12/28 01:59:08;;;;;;;1.90;1.60;;;6.50;1.00;;;;;;5060425;28;20597;-66
2022/12/28 02:01:36;;;;;;;6.10;2.10;;;6.50;1.00;;;;;;5042376;28;20207;-64
2022/12/28 02:04:03;;;;;;;4.13;1.80;;;6.50;1.00;;;;;;5059231;28;20762;-62
2022/12/28 02:06:31;;;;;;;3.43;2.03;;;6.60;1.00;;;;;;5058946;28;20678;-62
2022/12/28 02:09:05;;;;;;;3.93;1.80;;;6.60;1.00;;;;;;5040914;28;20198;-63
2022/12/28 02:11:33;;;;;;;4.27;1.80;;;6.50;1.00;;;;;;5039884;28;20199;-62
2022/12/28 02:14:01;;;;;;;5.40;1.70;;;6.50;1.00;;;;;;5040659;28;20203;-63
2022/12/28 02:16:29;;;;;;;4.67;2.10;;;6.50;1.00;;;;;;5040672;28;20196;-63
2022/12/28 02:18:56;;;;;;;3.90;1.87;;;6.60;1.00;;;;;;5040394;28;20195;-62
2022/12/28 02:21:37;;;;;;;5.43;1.70;;;6.60;1.00;;;;;;5057396;28;20199;-63
2022/12/28 02:24:39;;;;;;;4.63;1.97;;;6.60;1.00;;;;;;5056558;28;20299;-62
2022/12/28 02:27:49;;;;;;;3.67;1.97;;;6.60;1.00;;;;;;5038828;28;20289;-63
2022/12/28 02:30:18;;;;;;;3.57;1.80;;;6.60;1.00;;;;;;4954524;28;20206;-63
2022/12/28 02:33:25;;;;;;;3.03;1.67;;;6.60;1.00;;;;;;5037996;28;20245;-63
2022/12/28 02:36:05;;;;;;;5.23;1.93;;;6.70;1.00;;;;;;5024591;28;20326;-62
2022/12/28 02:38:51;;;;;;;2.70;1.67;;;6.70;1.00;;;;;;5058798;28;20202;-63
2022/12/28 02:41:23;;;;;;;5.77;2.03;;;6.70;1.00;;;;;;5057928;28;20259;-63
2022/12/28 02:43:51;;;;;;;3.67;1.73;;;6.70;1.00;;;;;;5022986;28;20678;-62
2022/12/28 02:52:17;;;;;;;5.10;2.13;;;6.80;1.00;;;;;;5039820;28;20198;-62
2022/12/28 02:57:45;;;;;;;4.50;2.03;;;6.80;1.00;;;;;;5058049;28;20205;-62
2022/12/28 03:00:18;;;;;;;3.10;1.70;;;6.90;1.00;;;;;;5021968;28;20222;-64
2022/12/28 03:03:19;;;;;;;2.53;1.73;;;6.90;1.00;;;;;;5055227;28;20218;-63
2022/12/28 03:09:43;;;;;;;8.00;1.93;;;7.00;1.00;;;;;;4938727;28;20191;-63
2022/12/28 03:12:37;;;;;;;3.43;1.77;;;7.00;1.00;;;;;;5023512;28;20222;-62
2022/12/28 03:15:14;;;;;;;5.30;2.20;;;7.00;1.00;;;;;;5035749;28;20200;-63
2022/12/28 03:31:44;;;;;;;4.97;1.93;;;7.30;1.00;;;;;;5039049;28;20201;-62
2022/12/28 03:34:14;;;;;;;3.90;2.13;;;7.30;1.00;;;;;;5038472;28;20191;-63
2022/12/28 03:37:13;;;;;;;3.03;1.80;;;7.30;1.00;;;;;;5040115;28;20188;-64
2022/12/28 03:39:50;;;;;;;3.00;1.57;;;7.30;1.00;;;;;;4989537;28;20540;-66
2022/12/28 03:45:54;;;;;;;4.97;1.83;;;7.40;1.00;;;;;;5037436;28;20211;-65
2022/12/28 03:48:22;;;;;;;5.87;1.87;;;7.40;1.00;;;;;;5036806;28;20647;-63
2022/12/28 03:50:51;;;;;;;3.23;2.03;;;7.30;1.00;;;;;;5033943;28;20536;-65
2022/12/28 03:53:24;;;;;;;6.47;2.40;;;7.40;1.00;;;;;;5055558;28;20191;-62
2022/12/28 03:56:05;;;;;;;3.70;2.50;;;7.40;1.00;;;;;;5036500;28;20729;-65
2022/12/28 03:58:32;;;;;;;4.77;1.93;;;7.40;1.00;;;;;;5039331;28;20202;-64
2022/12/28 04:00:59;;;;;;;4.47;2.13;;;7.40;1.00;;;;;;5053538;28;20252;-63
2022/12/28 04:03:27;;;;;;;19.43;7.63;;;7.40;1.00;;;;;;5036400;28;20210;-64
2022/12/28 04:05:55;;;;;;;30.00;15.30;;;7.40;1.00;;;;;;5035160;28;20745;-65
2022/12/28 04:08:22;;;;;;;12.40;7.27;;;7.40;1.00;;;;;;5057112;28;20590;-65
2022/12/28 04:10:51;;;;;;;35.27;16.27;;;7.40;1.00;;;;;;5037137;28;20479;-64
2022/12/28 04:13:18;;;;;;;10.97;6.07;;;7.40;1.00;;;;;;5037758;28;20235;-65
2022/12/28 04:16:05;;;;;;;25.27;12.57;;;7.40;1.00;;;;;;5051606;28;20568;-65
2022/12/28 04:18:34;;;;;;;6.53;3.20;;;7.50;1.00;;;;;;5056561;28;20261;-65
2022/12/28 04:21:02;;;;;;;7.60;3.73;;;7.50;1.00;;;;;;5053875;28;20751;-63
2022/12/28 04:23:30;;;;;;;4.03;2.40;;;7.50;1.00;;;;;;5056269;28;20190;-64
2022/12/28 04:26:14;;;;;;;5.10;2.40;;;7.50;1.00;;;;;;5035467;28;20215;-64
2022/12/28 04:28:43;;;;;;;6.57;3.70;;;7.50;1.00;;;;;;5039740;28;20195;-64
2022/12/28 04:31:19;;;;;;;6.30;3.13;;;7.50;1.00;;;;;;5038449;28;20214;-62
2022/12/28 04:33:53;;;;;;;4.80;2.17;;;7.50;1.00;;;;;;5036603;28;20202;-63
2022/12/28 04:36:20;;;;;;;4.77;2.63;;;7.50;1.00;;;;;;5036362;28;20187;-63
2022/12/28 04:38:49;;;;;;;2.77;1.93;;;7.50;1.00;;;;;;5037675;28;20195;-62
2022/12/28 04:41:16;;;;;;;1.97;1.67;;;7.50;1.00;;;;;;5053828;28;20278;-63
2022/12/28 04:43:43;;;;;;;3.27;1.80;;;7.50;1.00;;;;;;5054164;28;20234;-63
2022/12/28 04:46:12;;;;;;;3.57;2.30;;;7.50;1.00;;;;;;5027611;28;20912;-65
2022/12/28 04:48:40;;;;;;;5.53;2.27;;;7.60;1.00;;;;;;5038163;28;20191;-65
2022/12/28 04:51:15;;;;;;;4.00;2.40;;;7.60;1.00;;;;;;5036672;28;20196;-65
2022/12/28 04:53:42;;;;;;;3.13;1.80;;;7.60;1.00;;;;;;5054881;28;20560;-65
2022/12/28 04:56:10;;;;;;;5.20;3.10;;;7.60;1.00;;;;;;5054466;28;20674;-66
2022/12/28 04:58:38;;;;;;;3.43;1.90;;;7.70;1.00;;;;;;5022606;28;20252;-66
2022/12/28 05:01:07;;;;;;;3.90;1.87;;;7.60;1.00;;;;;;5056451;28;20192;-66
2022/12/28 05:03:36;;;;;;;4.67;1.63;;;7.60;1.00;;;;;;5055173;28;20656;-65
2022/12/28 05:06:10;;;;;;;5.30;2.60;;;7.70;1.00;;;;;;5036380;28;20777;-66
2022/12/28 05:08:37;;;;;;;5.40;2.07;;;7.70;1.00;;;;;;5056240;28;20761;-65
2022/12/28 05:11:07;;;;;;;3.07;1.83;;;7.80;1.00;;;;;;5054775;28;20196;-65
2022/12/28 05:13:34;;;;;;;2.70;2.00;;;7.80;1.00;;;;;;5051317;28;20179;-66
2022/12/28 05:16:09;;;;;;;2.67;1.90;;;7.80;1.00;;;;;;5021465;28;20227;-66
2022/12/28 05:18:37;;;;;;;3.00;1.80;;;7.80;1.00;;;;;;5038682;28;20282;-60
2022/12/28 05:21:18;;;;;;;4.73;1.97;;;7.80;1.00;;;;;;5038469;28;20191;-64
2022/12/28 05:23:46;;;;;;;4.23;2.17;;;7.80;1.00;;;;;;5055107;28;20651;-63
2022/12/28 05:26:20;;;;;;;5.03;1.90;;;7.90;1.00;;;;;;5039293;28;20218;-67
2022/12/28 05:28:47;;;;;;;4.53;1.93;;;7.90;1.00;;;;;;5040948;28;20274;-62
2022/12/28 05:31:17;;;;;;;3.17;1.80;;;7.90;1.00;;;;;;5057041;28;20283;-62
2022/12/28 05:33:44;;;;;;;4.53;2.10;;;7.90;1.00;;;;;;5041266;28;20191;-63
2022/12/28 05:36:16;;;;;;;2.87;1.90;;;7.90;1.00;;;;;;5041646;28;20561;-63
2022/12/28 05:38:44;;;;;;;4.40;1.83;;;7.80;1.00;;;;;;5058509;28;20202;-62
2022/12/28 05:41:11;;;;;;;3.20;1.83;;;7.80;1.00;;;;;;5025301;28;20293;-62
2022/12/28 05:43:38;;;;;;;6.30;2.07;;;7.80;1.00;;;;;;5057041;28;20191;-62
2022/12/28 05:46:09;;;;;;;5.80;2.30;;;7.80;1.00;;;;;;5024349;28;20679;-67
2022/12/28 05:48:39;;;;;;;2.83;1.90;;;7.90;1.00;;;;;;5057569;28;20291;-61
2022/12/28 05:51:11;;;;;;;3.10;2.00;;;7.80;1.00;;;;;;5041791;28;20183;-62
2022/12/28 05:53:40;;;;;;;2.10;1.80;;;7.80;1.00;;;;;;5056061;28;20213;-63
2022/12/28 05:56:11;;;;;;;3.03;1.90;;;7.80;1.00;;;;;;5058055;28;20714;-63
2022/12/28 05:58:41;;;;;;;2.23;1.77;;;7.80;1.00;;;;;;5041058;28;20539;-62
2022/12/28 06:01:08;;;;;;;2.60;1.87;;;7.80;1.00;;;;;;5039004;28;20230;-63
2022/12/28 06:03:36;;;;;;;2.73;1.90;;;7.80;1.00;;;;;;5058850;28;20215;-67
2022/12/28 06:06:14;;;;;;;4.47;2.07;;;7.70;1.00;;;;;;5055356;28;20233;-64
2022/12/28 06:08:42;;;;;;;3.30;1.67;;;7.70;1.00;;;;;;5057466;28;20694;-63
2022/12/28 06:11:13;;;;;;;4.33;1.83;;;7.70;1.00;;;;;;5059711;28;20195;-63
2022/12/28 06:13:40;;;;;;;2.60;1.87;;;7.80;1.00;;;;;;5040006;28;20290;-63
2022/12/28 06:16:13;;;;;;;3.03;1.90;;;7.80;1.00;;;;;;5056688;28;20192;-63
2022/12/28 06:18:41;;;;;;;4.37;2.00;;;7.80;1.00;;;;;;5058576;28;20613;-63
2022/12/28 06:21:12;;;;;;;2.03;1.60;;;7.80;1.00;;;;;;5056102;28;20204;-63
2022/12/28 06:23:39;;;;;;;4.47;1.70;;;7.80;1.00;;;;;;5056434;28;20564;-62
2022/12/28 06:26:07;;;;;;;3.20;2.10;;;7.80;1.00;;;;;;5057421;28;20285;-63
2022/12/28 06:28:38;;;;;;;2.10;1.70;;;7.80;1.00;;;;;;5040993;28;20235;-63
2022/12/28 06:31:07;;;;;;;3.10;1.97;;;7.90;1.00;;;;;;5057023;28;20691;-63
2022/12/28 06:33:34;;;;;;;5.87;2.07;;;7.80;1.00;;;;;;5056551;28;20219;-63
2022/12/28 06:36:02;;;;;;;3.53;1.93;;;7.80;1.00;;;;;;5056804;28;20226;-64
2022/12/28 06:38:31;;;;;;;4.57;2.30;;;7.80;1.00;;;;;;5058602;28;20404;-63
2022/12/28 06:41:05;;;;;;;3.37;1.90;;;7.80;1.00;;;;;;5058128;28;20531;-63
2022/12/28 06:43:42;;;;;;;3.30;1.90;;;7.80;1.00;;;;;;5059681;28;20202;-64
2022/12/28 06:46:10;;;;;;;2.37;1.83;;;7.80;1.00;;;;;;5055265;28;20427;-64
2022/12/28 06:48:38;;;;;;;2.07;1.67;;;7.70;1.00;;;;;;5059176;28;20210;-63
2022/12/28 06:51:20;;;;;;;2.80;1.70;;;7.70;1.00;;;;;;5037515;28;20218;-63
2022/12/28 06:53:48;;;;;;;3.13;2.00;;;7.70;1.00;;;;;;5038059;28;20197;-63
2022/12/28 06:56:18;;;;;;;2.50;1.83;;;7.70;1.00;;;;;;5038837;28;20189;-62
2022/12/28 06:58:47;;;;;;;2.43;1.77;;;7.70;1.00;;;;;;5056487;28;20194;-63
2022/12/28 07:01:18;;;;;;;3.00;1.80;;;7.70;1.00;;;;;;5054780;28;20257;-69
2022/12/28 07:03:47;;;;;;;3.87;1.70;;;7.70;1.00;;;;;;5054422;28;20223;-64
2022/12/28 07:06:16;;;;;;;2.40;1.90;;;7.70;1.00;;;;;;5055700;28;20227;-63
2022/12/28 07:08:43;;;;;;;3.77;2.23;;;7.70;1.00;;;;;;5056442;28;20278;-64
2022/12/28 07:11:17;;;;;;;4.97;1.93;;;7.70;1.00;;;;;;5039373;28;20274;-63
2022/12/28 07:13:45;;;;;;;2.73;1.80;;;7.70;1.00;;;;;;5040712;28;20183;-63
2022/12/28 07:16:22;;;;;;;4.93;1.80;;;7.60;1.00;;;;;;5053665;28;20662;-63
2022/12/28 07:18:49;;;;;;;2.60;1.70;;;7.60;8.10;;;;;;5021912;28;20204;-62
2022/12/28 07:21:20;;;;;;;3.83;1.77;;;7.60;19.20;;;;;;5054999;28;20258;-63
2022/12/28 07:23:49;;;;;;;2.20;1.77;;;7.60;25.40;;;;;;5055050;28;20198;-64
2022/12/28 07:26:21;;;;;;;2.80;1.80;;;7.60;36.00;;;;;;5054870;28;20262;-63
2022/12/28 07:28:51;;;;;;;4.13;1.73;;;7.60;38.00;;;;;;5038842;28;20199;-63
2022/12/28 07:31:21;;;;;;;2.50;1.60;;;7.60;42.70;;;;;;5022738;28;20666;-63
2022/12/28 07:33:49;;;;;;;2.57;1.60;;;7.60;46.50;;;;;;5053756;28;20179;-63
2022/12/28 07:36:19;;;;;;;1.53;1.43;;;7.60;99.90;;;;;;5021978;28;20199;-63
2022/12/28 07:38:46;;;;;;;2.23;1.63;;;7.60;99.90;;;;;;5060137;28;20197;-63
2022/12/28 07:41:23;;;;;;;2.33;1.60;;;7.60;99.90;;;;;;5057217;28;20227;-64
2022/12/28 07:43:51;;;;;;;1.93;1.60;;;7.60;99.90;;;;;;5038253;28;20217;-64
2022/12/28 07:46:20;;;;;;;3.23;1.70;;;7.60;1.00;;;;;;5035291;28;20207;-66
2022/12/28 07:48:48;;;;;;;1.67;1.40;;;7.60;99.90;;;;;;5060133;28;20286;-65
2022/12/28 07:51:20;;;;;;;1.67;1.57;;;7.60;99.90;;;;;;5020080;28;20194;-65
2022/12/28 07:53:49;;;;;;;2.63;1.77;;;7.60;99.90;;;;;;5055126;28;20230;-64
2022/12/28 07:56:17;;;;;;;2.07;1.87;;;7.60;99.90;;;;;;5054862;28;20656;-64
2022/12/28 07:58:49;;;;;;;1.80;1.70;;;7.60;99.90;;;;;;5052893;28;20184;-65
2022/12/28 08:01:16;;;;;;;2.57;1.60;;;7.60;99.90;;;;;;5035930;28;20183;-65
2022/12/28 08:03:43;;;;;;;2.07;1.80;;;7.60;99.90;;;;;;5037784;28;20219;-65
2022/12/28 08:06:12;;;;;;;2.77;2.00;;;7.60;99.90;;;;;;5038854;28;20826;-65
2022/12/28 08:08:44;;;;;;;3.37;1.97;;;7.60;99.90;;;;;;5054924;28;20275;-65
2022/12/28 08:11:14;;;;;;;2.43;2.00;;;7.60;99.90;;;;;;5057625;28;20653;-65
2022/12/28 08:13:44;;;;;;;4.67;1.70;;;7.70;99.90;;;;;;5058304;28;20270;-65
2022/12/28 08:16:12;;;;;;;5.17;2.17;;;7.70;99.90;;;;;;5058296;28;20649;-66
2022/12/28 08:18:40;;;;;;;3.00;2.00;;;7.60;99.90;;;;;;5054453;28;20198;-66
2022/12/28 08:21:13;;;;;;;3.10;1.80;;;7.70;99.90;;;;;;5057297;28;20277;-65
2022/12/28 08:23:40;;;;;;;3.07;2.07;;;7.60;99.90;;;;;;5055846;28;20843;-65
2022/12/28 08:26:16;;;;;;;3.70;2.37;;;7.60;99.90;;;;;;5056328;28;20660;-65
2022/12/28 08:28:45;;;;;;;2.83;2.00;;;7.60;99.90;;;;;;5039884;28;20191;-68
2022/12/28 08:31:18;;;;;;;5.43;2.53;;;7.70;99.90;;;;;;5023115;28;20187;-65
2022/12/28 08:33:49;;;;;;;2.87;2.27;;;7.70;99.90;;;;;;5040226;28;20270;-65
2022/12/28 08:36:16;;;;;;;3.67;2.23;;;7.70;99.90;;;;;;5057082;28;20689;-65
2022/12/28 08:38:44;;;;;;;3.23;2.30;;;7.70;99.90;;;;;;5039664;28;20289;-65
2022/12/28 08:41:15;;;;;;;3.07;2.20;;;7.70;99.90;;;;;;5055313;28;20215;-66
2022/12/28 08:43:43;;;;;;;4.43;2.00;;;7.70;99.90;;;;;;5041664;28;20392;-66
2022/12/28 08:46:16;;;;;;;3.60;2.67;;;7.70;99.90;;;;;;5039835;28;20229;-66
2022/12/28 08:48:44;;;;;;;4.20;2.30;;;7.70;99.90;;;;;;5057242;28;20604;-66
2022/12/28 08:51:14;;;;;;;3.37;2.73;;;7.70;99.90;;;;;;5038764;28;20196;-67
2022/12/28 08:53:42;;;;;;;2.53;1.93;;;7.80;99.90;;;;;;5022833;28;20679;-67
2022/12/28 08:56:18;;;;;;;5.20;2.33;;;7.80;99.90;;;;;;5056903;28;20447;-65
2022/12/28 08:58:46;;;;;;;6.20;3.33;;;7.80;1.00;;;;;;5054847;28;20746;-65
2022/12/28 09:01:19;;;;;;;2.40;2.20;;;7.80;1.00;;;;;;5058375;28;20670;-66
2022/12/28 09:03:48;;;;;;;7.27;2.97;;;7.80;1.00;;;;;;5060532;28;20214;-65
2022/12/28 09:06:19;;;;;;;2.00;1.77;;;7.80;1.00;;;;;;5058039;28;20219;-65
2022/12/28 09:08:52;;;;;;;5.03;3.20;;;7.90;1.00;;;;;;5022042;28;20195;-65
2022/12/28 09:11:35;;;;;;;4.60;2.33;;;7.90;1.00;;;;;;5060472;28;20685;-65
2022/12/28 09:14:04;;;;;;;3.17;2.23;;;7.80;1.00;;;;;;5026222;28;20258;-65
2022/12/28 09:16:31;;;;;;;4.30;2.43;;;7.90;1.00;;;;;;5024183;28;20199;-64
2022/12/28 09:19:01;;;;;;;3.90;2.00;;;8.00;1.00;;;;;;5058555;28;20216;-66
2022/12/28 09:21:30;;;;;;;5.73;2.20;;;8.00;1.00;;;;;;5025283;28;20194;-65
2022/12/28 09:23:57;;;;;;;2.40;2.20;;;8.00;99.90;;;;;;5036607;28;20638;-65
2022/12/28 09:26:27;;;;;;;5.23;2.70;;;8.00;1.00;;;;;;5059801;28;20203;-65
2022/12/28 09:28:57;;;;;;;5.43;4.63;;;8.00;99.90;;;;;;5027130;28;20207;-65
2022/12/28 09:31:27;;;;;;;4.33;3.60;;;8.00;99.90;;;;;;5041909;28;20226;-65
2022/12/28 09:34:00;;;;;;;2.50;1.83;;;8.10;1.00;;;;;;5041932;28;20799;-66
2022/12/28 09:36:47;;;;;;;2.70;2.50;;;8.10;99.90;;;;;;5059686;28;20203;-65
2022/12/28 09:39:19;;;;;;;3.47;2.07;;;8.10;99.90;;;;;;5060244;28;20199;-64
2022/12/28 09:42:05;;;;;;;2.77;1.87;;;8.10;99.90;;;;;;5053886;28;20666;-64
2022/12/28 09:44:46;;;;;;;3.70;2.20;;;8.10;1.00;;;;;;5035701;28;20231;-65
2022/12/28 09:47:19;;;;;;;2.00;1.90;;;8.10;99.90;;;;;;5025188;28;20222;-65
2022/12/28 09:50:10;;;;;;;4.30;2.10;;;8.20;99.90;;;;;;5041484;28;20248;-64
2022/12/28 09:52:37;;;;;;;5.10;2.20;;;8.20;99.90;;;;;;5040121;28;20195;-65
2022/12/28 09:55:16;;;;;;;3.27;2.23;;;8.20;1.00;;;;;;5041414;28;20191;-65
2022/12/28 09:57:56;;;;;;;2.77;1.90;;;8.20;99.90;;;;;;5041507;28;20682;-64
2022/12/28 10:00:44;;;;;;;2.10;1.90;;;8.30;99.90;;;;;;5058643;28;20210;-64
2022/12/28 10:03:19;;;;;;;4.93;2.20;;;8.40;99.90;;;;;;5025299;28;20958;-65
2022/12/28 10:05:46;;;;;;;2.10;1.60;;;8.40;99.90;;;;;;5056019;28;20587;-64
2022/12/28 10:08:16;;;;;;;2.93;1.80;;;8.40;99.90;;;;;;5042314;28;20213;-65
2022/12/28 10:10:43;;;;;;;2.27;1.53;;;8.40;99.90;;;;;;5057955;28;20196;-65
2022/12/28 10:13:22;;;;;;;4.00;1.87;;;8.50;99.90;;;;;;5025342;28;20196;-67
2022/12/28 10:16:17;;;;;;;2.40;1.80;;;8.50;99.90;;;;;;5035249;28;20658;-64
2022/12/28 10:18:46;;;;;;;2.63;1.80;;;8.60;99.90;;;;;;5040248;28;20697;-64
2022/12/28 10:21:15;;;;;;;3.10;1.70;;;8.60;99.90;;;;;;5056825;28;20275;-65
2022/12/28 10:23:43;;;;;;;3.97;1.83;;;8.60;99.90;;;;;;5041857;28;20305;-66
2022/12/28 10:26:32;;;;;;;2.23;1.70;;;8.60;99.90;;;;;;5059698;28;20207;-65
2022/12/28 10:29:00;;;;;;;1.50;1.40;;;8.60;99.90;;;;;;5040226;28;20191;-64
2022/12/28 10:31:38;;;;;;;5.13;1.90;;;8.70;94.70;;;;;;5039368;28;20206;-65
2022/12/28 10:34:19;;;;;;;1.80;1.40;;;8.70;58.10;;;;;;5059306;28;20187;-65
2022/12/28 10:36:48;;;;;;;3.30;1.60;;;8.80;26.50;;;;;;5039867;28;20710;-65
2022/12/28 10:39:24;;;;;;;3.43;1.53;;;8.90;19.70;;;;;;5057743;28;20219;-65
2022/12/28 10:41:52;;;;;;;1.90;1.40;;;9.00;7.30;;;;;;5040780;28;20240;-65
2022/12/28 10:44:27;;;;;;;3.53;1.50;;;9.00;1.70;;;;;;5057096;28;20198;-64
2022/12/28 10:47:23;;;;;;;4.33;1.50;;;9.00;1.00;;;;;;5040781;28;20246;-65
2022/12/28 10:49:50;;;;;;;2.60;1.60;;;9.00;1.00;;;;;;5039846;28;20198;-64
2022/12/28 10:52:38;;;;;;;3.20;1.70;;;9.00;1.00;;;;;;5038670;28;20637;-64
2022/12/28 10:55:26;;;;;;;2.03;1.90;;;9.00;1.00;;;;;;5039783;28;20671;-65
2022/12/28 10:57:53;;;;;;;3.53;1.70;;;9.10;1.00;;;;;;5056581;28;20223;-64
2022/12/28 11:00:40;;;;;;;4.37;2.13;;;9.10;1.00;;;;;;5057998;28;20199;-64
2022/12/28 11:03:18;;;;;;;1.97;1.40;;;9.20;1.00;;;;;;5042435;28;20203;-64
2022/12/28 11:05:45;;;;;;;4.20;1.60;;;9.20;1.00;;;;;;5039521;28;20281;-65
2022/12/28 11:08:22;;;;;;;5.10;3.40;;;9.30;1.00;;;;;;5057252;28;20203;-64
2022/12/28 11:10:56;;;;;;;6.40;3.60;;;9.30;1.00;;;;;;5039650;28;20554;-65
2022/12/28 11:13:26;;;;;;;6.03;3.67;;;9.40;1.00;;;;;;5056438;28;20191;-65
2022/12/28 11:15:53;;;;;;;13.00;7.33;;;9.30;1.00;;;;;;5039855;28;20248;-65
2022/12/28 11:18:20;;;;;;;4.03;2.70;;;9.40;1.00;;;;;;5039741;28;20594;-65
2022/12/28 11:20:51;;;;;;;5.63;3.40;;;9.40;1.00;;;;;;5038614;28;20201;-65
2022/12/28 11:23:23;;;;;;;5.87;3.70;;;9.50;1.00;;;;;;5021132;28;20256;-65
2022/12/28 11:25:51;;;;;;;12.63;6.93;;;9.50;1.00;;;;;;5054466;28;20190;-64
2022/12/28 11:28:20;;;;;;;5.33;3.37;;;9.50;1.00;;;;;;5057045;28;20272;-64
2022/12/28 11:30:50;;;;;;;7.13;3.80;;;9.50;1.00;;;;;;5055679;28;20223;-64
2022/12/28 11:33:41;;;;;;;6.60;3.37;;;9.50;1.00;;;;;;5039031;28;20192;-65
2022/12/28 11:36:27;;;;;;;2.30;1.57;;;9.50;1.00;;;;;;5012411;28;20233;-64
2022/12/28 11:38:56;;;;;;;9.30;2.30;;;9.50;1.00;;;;;;5039091;28;20252;-64
2022/12/28 11:41:23;;;;;;;2.90;1.47;;;9.50;1.00;;;;;;5038755;28;20283;-65
2022/12/28 11:44:06;;;;;;;2.53;1.90;;;9.50;1.00;;;;;;5038789;28;20255;-65
2022/12/28 11:46:38;;;;;;;4.97;1.80;;;9.50;1.00;;;;;;5057865;28;20207;-65
2022/12/28 11:49:27;;;;;;;5.10;1.90;;;9.50;1.00;;;;;;5039644;28;20230;-66
2022/12/28 11:52:15;;;;;;;6.30;1.90;;;9.50;1.00;;;;;;5053550;28;20288;-66
2022/12/28 11:54:58;;;;;;;2.33;1.70;;;9.60;1.00;;;;;;5036999;28;20208;-65
2022/12/28 11:57:53;;;;;;;1.90;1.40;;;9.70;1.00;;;;;;5038183;28;20203;-65
2022/12/28 12:00:21;;;;;;;4.17;1.80;;;9.70;1.00;;;;;;5036427;28;20675;-64
2022/12/28 12:03:02;;;;;;;3.77;1.33;;;9.70;1.00;;;;;;5038042;28;20568;-65
2022/12/28 12:05:38;;;;;;;2.73;1.30;;;9.70;1.00;;;;;;5018165;28;20735;-64
2022/12/28 12:08:15;;;;;;;1.40;1.30;;;9.70;1.00;;;;;;5048285;28;20218;-64
2022/12/28 12:10:47;;;;;;;2.47;1.20;;;9.80;1.00;;;;;;5036344;28;20979;-65
2022/12/28 12:13:46;;;;;;;1.63;1.23;;;9.90;1.00;;;;;;5035654;28;20196;-65
2022/12/28 12:16:24;;;;;;;2.47;1.17;;;9.90;1.00;;;;;;5036782;28;20257;-65
2022/12/28 12:18:55;;;;;;;2.70;1.23;;;9.90;1.00;;;;;;5036834;28;20257;-65
2022/12/28 12:21:30;;;;;;;1.90;1.40;;;9.90;1.00;;;;;;5018524;28;20374;-65
2022/12/28 12:24:17;;;;;;;2.50;1.37;;;10.00;1.00;;;;;;5034825;28;20211;-65
2022/12/28 12:26:51;;;;;;;2.77;1.63;;;10.00;1.00;;;;;;5034536;28;20623;-65
2022/12/28 12:29:34;;;;;;;3.60;1.67;;;10.10;1.00;;;;;;5036043;28;20595;-65
2022/12/28 12:32:04;;;;;;;2.00;1.50;;;10.10;1.00;;;;;;5029264;28;20192;-65
2022/12/28 12:34:40;;;;;;;3.63;1.23;;;10.10;1.00;;;;;;5018101;28;20199;-65
2022/12/28 12:37:27;;;;;;;2.00;1.17;;;10.10;1.00;;;;;;5040271;28;20720;-65
2022/12/28 12:40:17;;;;;;;3.57;1.40;;;10.10;1.00;;;;;;5038822;28;20690;-65
2022/12/28 12:43:05;;;;;;;4.30;1.60;;;10.10;1.00;;;;;;5041899;28;20663;-65
2022/12/28 12:45:35;;;;;;;2.37;1.23;;;10.10;1.00;;;;;;5039698;28;20204;-65
2022/12/28 12:48:21;;;;;;;3.03;1.27;;;10.10;1.00;;;;;;5041229;28;20704;-66
2022/12/28 12:50:56;;;;;;;1.80;1.63;;;10.00;1.00;;;;;;5042835;28;20283;-65
2022/12/28 12:53:42;;;;;;;3.70;1.40;;;10.00;1.00;;;;;;5043218;28;20729;-65
2022/12/28 12:56:27;;;;;;;3.00;1.60;;;10.00;1.00;;;;;;5029098;28;20200;-65
2022/12/28 12:59:19;;;;;;;2.63;1.47;;;9.90;1.00;;;;;;5038499;28;20184;-65
2022/12/28 13:02:02;;;;;;;2.80;1.50;;;9.90;1.00;;;;;;5025449;28;20663;-65
2022/12/28 13:04:34;;;;;;;2.30;1.40;;;9.90;1.00;;;;;;5037519;28;20230;-64
2022/12/28 13:07:04;;;;;;;4.40;1.53;;;9.90;1.00;;;;;;5040979;28;20282;-65
2022/12/28 13:09:33;;;;;;;2.10;1.43;;;10.00;1.00;;;;;;5040798;28;20207;-64
2022/12/28 13:12:01;;;;;;;2.17;1.50;;;10.00;1.00;;;;;;5037266;28;20196;-64
2022/12/28 13:14:29;;;;;;;3.93;1.77;;;10.10;1.00;;;;;;5037659;28;20668;-65
2022/12/28 13:16:58;;;;;;;3.30;1.67;;;10.00;1.00;;;;;;5057930;28;20782;-64
2022/12/28 13:19:29;;;;;;;2.10;1.47;;;10.00;1.00;;;;;;5039600;28;20191;-65
2022/12/28 13:21:57;;;;;;;3.17;1.50;;;10.00;1.00;;;;;;5038355;28;20723;-67
2022/12/28 13:24:30;;;;;;;3.03;1.60;;;9.90;1.00;;;;;;5037350;28;20191;-65
2022/12/28 13:26:59;;;;;;;2.63;1.83;;;9.90;1.00;;;;;;5012666;28;20219;-65
2022/12/28 13:29:33;;;;;;;3.23;1.70;;;9.90;1.00;;;;;;5035748;28;20552;-65
2022/12/28 13:32:00;;;;;;;2.73;1.40;;;10.00;1.00;;;;;;5020254;28;20203;-64
2022/12/28 13:34:30;;;;;;;2.40;1.60;;;9.90;1.00;;;;;;5036871;28;20188;-64
2022/12/28 13:36:59;;;;;;;2.47;1.57;;;10.00;1.00;;;;;;5037731;28;20594;-64
2022/12/28 13:39:33;;;;;;;3.57;1.73;;;10.00;1.00;;;;;;5023319;28;20200;-64
2022/12/28 13:42:25;;;;;;;12.17;6.77;;;10.00;1.00;;;;;;5037322;28;20342;-65
2022/12/28 13:44:58;;;;;;;6.23;3.30;;;9.90;1.00;;;;;;5037319;28;20210;-65
2022/12/28 13:47:42;;;;;;;9.17;5.23;;;9.90;1.00;;;;;;5023897;28;20223;-64
2022/12/28 13:50:13;;;;;;;6.87;3.60;;;9.90;1.00;;;;;;5020285;28;20290;-64
2022/12/28 13:52:58;;;;;;;8.97;3.97;;;9.90;1.00;;;;;;5018988;28;20207;-65
2022/12/28 13:55:33;;;;;;;8.20;3.13;;;9.90;1.00;;;;;;5037490;28;20546;-66
2022/12/28 13:58:04;;;;;;;4.90;2.53;;;9.90;1.00;;;;;;5019350;28;20199;-65
2022/12/28 14:00:33;;;;;;;4.73;2.30;;;9.80;1.00;;;;;;5051833;28;20291;-65
2022/12/28 14:03:00;;;;;;;4.50;2.70;;;9.70;1.00;;;;;;5049297;28;20290;-65
2022/12/28 14:05:29;;;;;;;3.73;1.90;;;9.80;1.00;;;;;;5020344;28;20244;-65